createdAt,value
2018-07-15T00:01:35.574Z,0.00
2018-07-15T00:02:35.564Z,0.00
2018-07-15T00:04:28.498Z,0.00
2018-07-15T00:05:28.511Z,0.00
2018-07-15T00:07:21.457Z,0.00
2018-07-15T00:08:21.453Z,0.00
2018-07-15T00:10:14.381Z,0.00
2018-07-15T00:11:14.397Z,0.00
2018-07-15T00:13:07.343Z,0.00
2018-07-15T00:14:07.344Z,0.00
2018-07-15T00:16:00.280Z,0.00
2018-07-15T00:17:00.295Z,0.00
2018-07-15T00:18:53.250Z,0.00
2018-07-15T00:19:53.239Z,0.00
2018-07-15T00:21:46.184Z,0.00
2018-07-15T00:22:46.179Z,0.00
2018-07-15T00:24:39.119Z,0.00
2018-07-15T00:25:39.131Z,0.00
2018-07-15T00:27:32.077Z,0.00
2018-07-15T00:28:32.074Z,0.00
2018-07-15T00:30:25.004Z,0.00
2018-07-15T00:31:25.022Z,0.00
2018-07-15T00:33:17.962Z,0.00
2018-07-15T00:34:17.960Z,0.00
2018-07-15T00:36:10.885Z,0.00
2018-07-15T00:37:10.900Z,0.00
2018-07-15T00:39:03.866Z,0.00
2018-07-15T00:40:03.856Z,0.00
2018-07-15T00:41:56.801Z,0.00
2018-07-15T00:42:56.799Z,0.00
2018-07-15T00:44:49.725Z,0.00
2018-07-15T00:45:49.737Z,0.00
2018-07-15T00:47:42.687Z,0.00
2018-07-15T00:48:42.681Z,0.00
2018-07-15T00:50:35.608Z,0.00
2018-07-15T00:51:35.625Z,0.00
2018-07-15T00:53:28.573Z,0.00
2018-07-15T00:54:28.571Z,0.00
2018-07-15T00:56:21.501Z,0.00
2018-07-15T00:57:21.513Z,0.00
2018-07-15T00:59:14.463Z,0.00
2018-07-15T01:00:14.463Z,0.00
2018-07-15T01:02:07.406Z,0.00
2018-07-15T01:03:07.403Z,0.00
2018-07-15T01:05:00.328Z,0.00
2018-07-15T01:06:00.342Z,0.00
2018-07-15T01:07:53.296Z,0.00
2018-07-15T01:08:53.290Z,0.00
2018-07-15T01:10:46.224Z,0.00
2018-07-15T01:11:46.229Z,0.00
2018-07-15T01:13:39.175Z,0.00
2018-07-15T01:14:39.169Z,0.00
2018-07-15T01:16:32.101Z,0.00
2018-07-15T01:17:32.111Z,0.00
2018-07-15T01:19:25.073Z,0.00
2018-07-15T01:20:25.065Z,0.00
2018-07-15T01:22:18.013Z,0.00
2018-07-15T01:23:18.008Z,0.00
2018-07-15T01:25:10.934Z,0.00
2018-07-15T01:26:10.951Z,0.00
2018-07-15T01:28:03.899Z,0.00
2018-07-15T01:29:03.895Z,0.00
2018-07-15T01:30:56.827Z,0.00
2018-07-15T01:31:56.845Z,0.00
2018-07-15T01:33:49.791Z,0.00
2018-07-15T01:34:49.786Z,0.00
2018-07-15T01:36:42.712Z,0.00
2018-07-15T01:37:42.727Z,0.00
2018-07-15T01:39:35.674Z,0.00
2018-07-15T01:40:35.667Z,0.00
2018-07-15T01:42:28.620Z,0.00
2018-07-15T01:43:28.614Z,0.00
2018-07-15T01:45:21.541Z,0.00
2018-07-15T01:46:21.559Z,0.00
2018-07-15T01:48:14.499Z,0.00
2018-07-15T01:49:14.497Z,0.00
2018-07-15T01:51:07.424Z,0.00
2018-07-15T01:52:07.432Z,0.00
2018-07-15T01:54:00.383Z,0.00
2018-07-15T01:55:00.379Z,0.00
2018-07-15T02:23:51.918Z,0.00
2018-07-15T02:24:51.909Z,0.00
2018-07-15T02:26:44.823Z,0.00
2018-07-15T02:27:44.829Z,0.00
2018-07-15T02:29:37.763Z,0.00
2018-07-15T02:30:37.757Z,0.00
2018-07-15T02:32:30.695Z,0.00
2018-07-15T02:33:30.690Z,0.00
2018-07-15T02:35:23.611Z,0.00
2018-07-15T02:36:23.625Z,0.00
2018-07-15T02:38:16.561Z,0.00
2018-07-15T02:39:16.557Z,0.00
2018-07-15T02:41:09.476Z,0.00
2018-07-15T02:42:09.487Z,0.00
2018-07-15T02:44:02.446Z,0.00
2018-07-15T02:45:02.433Z,0.00
2018-07-15T02:46:55.362Z,0.00
2018-07-15T02:47:55.370Z,0.00
2018-07-15T02:49:48.313Z,0.00
2018-07-15T02:50:48.310Z,0.00
2018-07-15T02:52:41.259Z,0.00
2018-07-15T02:53:41.251Z,0.00
2018-07-15T02:55:34.181Z,0.00
2018-07-15T02:56:34.193Z,0.00
2018-07-15T02:58:27.167Z,0.00
2018-07-15T02:59:27.137Z,0.00
2018-07-15T03:01:20.060Z,0.00
2018-07-15T03:02:20.076Z,0.00
2018-07-15T03:04:13.022Z,0.00
2018-07-15T03:05:13.016Z,0.00
2018-07-15T03:07:05.936Z,0.00
2018-07-15T03:08:05.953Z,0.00
2018-07-15T03:09:58.898Z,0.00
2018-07-15T03:10:58.899Z,0.00
2018-07-15T03:12:51.838Z,0.00
2018-07-15T03:13:51.839Z,0.00
2018-07-15T03:15:44.783Z,0.00
2018-07-15T03:16:44.782Z,0.00
2018-07-15T03:18:37.720Z,0.00
2018-07-15T03:19:37.720Z,0.00
2018-07-15T03:21:30.643Z,0.00
2018-07-15T03:22:30.657Z,0.00
2018-07-15T03:24:23.606Z,0.00
2018-07-15T03:25:23.605Z,0.00
2018-07-15T03:27:16.530Z,0.00
2018-07-15T03:28:16.544Z,0.00
2018-07-15T03:30:09.486Z,0.00
2018-07-15T03:31:09.535Z,0.00
2018-07-15T03:33:02.434Z,0.00
2018-07-15T03:34:02.459Z,0.00
2018-07-15T03:35:55.371Z,0.00
2018-07-15T03:36:55.361Z,0.00
2018-07-15T03:38:48.308Z,5.63
2018-07-15T03:39:48.363Z,5.63
2018-07-15T03:41:41.230Z,5.63
2018-07-15T03:42:41.243Z,5.63
2018-07-15T03:44:34.242Z,5.63
2018-07-15T03:45:34.232Z,5.63
2018-07-15T03:47:27.176Z,5.63
2018-07-15T03:48:27.176Z,5.63
2018-07-15T03:50:20.124Z,5.63
2018-07-15T03:51:20.181Z,11.25
2018-07-15T03:53:13.044Z,11.25
2018-07-15T03:54:13.059Z,11.25
2018-07-15T03:56:06.008Z,11.25
2018-07-15T03:57:06.006Z,11.25
2018-07-15T03:58:58.946Z,11.25
2018-07-15T03:59:58.940Z,11.25
2018-07-15T04:01:51.864Z,16.88
2018-07-15T04:02:51.879Z,16.88
2018-07-15T04:04:44.835Z,16.88
2018-07-15T04:05:44.831Z,16.88
2018-07-15T04:07:37.755Z,16.88
2018-07-15T04:08:37.792Z,16.88
2018-07-15T04:10:30.712Z,22.50
2018-07-15T04:11:30.707Z,22.50
2018-07-15T04:13:23.635Z,22.50
2018-07-15T04:14:23.647Z,28.13
2018-07-15T04:16:16.596Z,22.50
2018-07-15T04:17:16.594Z,28.13
2018-07-15T04:19:09.537Z,28.13
2018-07-15T04:20:09.535Z,28.13
2018-07-15T04:22:02.468Z,28.13
2018-07-15T04:23:02.483Z,28.13
2018-07-15T04:24:55.432Z,28.13
2018-07-15T04:25:55.429Z,33.75
2018-07-15T04:27:48.353Z,33.75
2018-07-15T04:28:48.367Z,33.75
2018-07-15T04:30:41.314Z,33.75
2018-07-15T04:31:41.312Z,33.75
2018-07-15T04:33:34.236Z,33.75
2018-07-15T04:34:34.255Z,33.75
2018-07-15T04:36:27.199Z,39.38
2018-07-15T04:37:27.196Z,45.00
2018-07-15T04:39:20.150Z,39.38
2018-07-15T04:40:20.138Z,39.38
2018-07-15T04:42:13.062Z,39.38
2018-07-15T04:43:13.081Z,39.38
2018-07-15T04:45:06.033Z,39.38
2018-07-15T04:46:06.047Z,45.00
2018-07-15T04:47:58.954Z,45.00
2018-07-15T04:48:58.967Z,45.00
2018-07-15T04:50:51.911Z,45.00
2018-07-15T04:51:51.911Z,45.00
2018-07-15T04:53:44.835Z,45.00
2018-07-15T04:54:44.849Z,50.63
2018-07-15T04:56:37.796Z,50.63
2018-07-15T04:57:37.792Z,50.63
2018-07-15T04:59:30.740Z,50.63
2018-07-15T05:00:30.735Z,50.63
2018-07-15T05:02:23.665Z,56.25
2018-07-15T05:03:23.680Z,101.25
2018-07-15T05:05:16.635Z,95.63
2018-07-15T05:06:16.626Z,146.25
2018-07-15T05:08:09.546Z,67.50
2018-07-15T05:09:09.564Z,56.25
2018-07-15T05:11:02.502Z,61.88
2018-07-15T05:12:02.500Z,61.88
2018-07-15T05:13:55.446Z,73.13
2018-07-15T05:14:55.446Z,73.13
2018-07-15T05:16:48.391Z,61.88
2018-07-15T05:17:48.382Z,61.88
2018-07-15T05:19:41.331Z,61.88
2018-07-15T05:20:41.330Z,61.88
2018-07-15T05:22:34.260Z,67.50
2018-07-15T05:23:34.271Z,67.50
2018-07-15T05:25:27.218Z,67.50
2018-07-15T05:26:27.216Z,67.50
2018-07-15T05:28:20.142Z,73.13
2018-07-15T05:29:20.157Z,73.13
2018-07-15T05:31:13.105Z,84.38
2018-07-15T05:32:13.101Z,90.00
2018-07-15T05:34:06.028Z,568.13
2018-07-15T05:35:06.054Z,1068.75
2018-07-15T05:36:58.992Z,1310.63
2018-07-15T05:37:58.987Z,1305.00
2018-07-15T05:39:51.937Z,1276.88
2018-07-15T05:40:51.936Z,1265.63
2018-07-15T05:42:44.862Z,1254.38
2018-07-15T05:43:44.883Z,1231.88
2018-07-15T05:45:37.838Z,1203.75
2018-07-15T05:46:37.834Z,1203.75
2018-07-15T05:48:30.771Z,1226.25
2018-07-15T05:49:30.792Z,1226.25
2018-07-15T05:51:23.747Z,1209.38
2018-07-15T05:52:23.756Z,1198.13
2018-07-15T05:54:16.690Z,1186.88
2018-07-15T05:55:16.710Z,1175.63
2018-07-15T05:57:09.670Z,1164.38
2018-07-15T05:58:09.668Z,1141.88
2018-07-15T06:00:02.631Z,1102.50
2018-07-15T06:01:02.640Z,1085.63
2018-07-15T06:02:55.585Z,1057.50
2018-07-15T06:03:55.609Z,1046.25
2018-07-15T06:05:48.573Z,1029.38
2018-07-15T06:06:48.574Z,1018.13
2018-07-15T06:08:41.521Z,995.63
2018-07-15T06:09:41.543Z,990.00
2018-07-15T06:11:34.503Z,984.38
2018-07-15T06:12:34.509Z,978.75
2018-07-15T06:14:27.456Z,978.75
2018-07-15T06:15:27.482Z,961.88
2018-07-15T06:17:20.448Z,967.50
2018-07-15T06:18:20.454Z,961.88
2018-07-15T06:20:13.424Z,950.63
2018-07-15T06:21:13.427Z,933.75
2018-07-15T06:23:06.374Z,922.50
2018-07-15T06:24:06.403Z,928.13
2018-07-15T06:25:59.366Z,911.25
2018-07-15T06:26:59.369Z,900.00
2018-07-15T06:28:52.314Z,871.88
2018-07-15T06:29:52.339Z,866.25
2018-07-15T06:31:45.351Z,821.25
2018-07-15T06:32:45.326Z,781.88
2018-07-15T06:34:38.254Z,680.63
2018-07-15T06:35:38.281Z,641.25
2018-07-15T06:37:31.376Z,607.50
2018-07-15T06:38:31.386Z,596.25
2018-07-15T06:40:24.357Z,596.25
2018-07-15T06:41:24.358Z,590.63
2018-07-15T06:43:17.304Z,585.00
2018-07-15T06:44:17.329Z,579.38
2018-07-15T06:46:10.300Z,573.75
2018-07-15T06:47:10.307Z,568.13
2018-07-15T06:49:03.251Z,562.50
2018-07-15T06:50:03.276Z,556.88
2018-07-15T06:51:56.246Z,551.25
2018-07-15T06:52:56.252Z,556.88
2018-07-15T06:54:49.200Z,545.63
2018-07-15T06:55:49.291Z,545.63
2018-07-15T06:57:42.196Z,540.00
2018-07-15T06:58:42.201Z,534.38
2018-07-15T07:00:35.179Z,528.75
2018-07-15T07:01:35.235Z,528.75
2018-07-15T07:03:28.131Z,517.50
2018-07-15T07:04:28.155Z,517.50
2018-07-15T07:06:21.131Z,517.50
2018-07-15T07:07:21.317Z,511.88
2018-07-15T07:09:14.078Z,506.25
2018-07-15T07:10:14.105Z,500.63
2018-07-15T07:12:07.067Z,500.63
2018-07-15T07:13:07.074Z,495.00
2018-07-15T07:15:00.026Z,495.00
2018-07-15T07:16:00.045Z,500.63
2018-07-15T07:17:53.017Z,489.38
2018-07-15T07:18:53.018Z,489.38
2018-07-15T07:20:45.985Z,478.13
2018-07-15T07:21:45.990Z,472.50
2018-07-15T07:23:38.942Z,466.88
2018-07-15T07:24:38.959Z,461.25
2018-07-15T07:26:31.927Z,450.00
2018-07-15T07:27:31.934Z,450.00
2018-07-15T07:29:24.878Z,438.75
2018-07-15T07:30:24.902Z,438.75
2018-07-15T07:32:17.870Z,427.50
2018-07-15T07:33:17.875Z,427.50
2018-07-15T07:35:10.818Z,421.88
2018-07-15T07:36:10.851Z,416.25
2018-07-15T07:38:03.810Z,410.63
2018-07-15T07:39:03.825Z,410.63
2018-07-15T07:40:56.786Z,399.38
2018-07-15T07:41:56.799Z,393.75
2018-07-15T07:43:49.737Z,382.50
2018-07-15T07:44:49.765Z,382.50
2018-07-15T07:46:42.731Z,376.88
2018-07-15T07:47:42.735Z,365.63
2018-07-15T07:49:35.681Z,354.38
2018-07-15T07:50:35.703Z,343.13
2018-07-15T07:52:28.671Z,343.13
2018-07-15T07:53:28.680Z,343.13
2018-07-15T07:55:21.629Z,343.13
2018-07-15T07:56:21.642Z,337.50
2018-07-15T07:58:14.613Z,331.88
2018-07-15T07:59:14.615Z,331.88
2018-07-15T08:01:07.581Z,320.63
2018-07-15T08:02:07.585Z,315.00
2018-07-15T08:04:00.533Z,315.00
2018-07-15T08:05:00.554Z,309.38
2018-07-15T08:06:53.520Z,303.75
2018-07-15T08:07:53.528Z,298.13
2018-07-15T08:09:46.473Z,292.50
2018-07-15T08:10:46.494Z,292.50
2018-07-15T08:12:39.464Z,286.88
2018-07-15T08:13:39.462Z,286.88
2018-07-15T08:15:32.407Z,286.88
2018-07-15T08:16:32.436Z,292.50
2018-07-15T08:18:25.393Z,281.25
2018-07-15T08:19:25.395Z,275.63
2018-07-15T08:21:18.355Z,270.00
2018-07-15T08:22:18.361Z,264.38
2018-07-15T08:24:11.306Z,258.75
2018-07-15T08:25:11.330Z,253.13
2018-07-15T08:27:04.299Z,253.13
2018-07-15T08:28:04.331Z,247.50
2018-07-15T08:29:57.244Z,230.63
2018-07-15T08:30:57.268Z,180.00
2018-07-15T08:32:50.227Z,140.63
2018-07-15T08:33:50.230Z,135.00
2018-07-15T08:35:43.169Z,140.63
2018-07-15T08:36:43.196Z,151.88
2018-07-15T08:38:36.155Z,185.63
2018-07-15T08:39:36.157Z,208.13
2018-07-15T08:41:29.123Z,219.38
2018-07-15T08:42:29.124Z,219.38
2018-07-15T08:44:22.067Z,191.25
2018-07-15T08:45:22.086Z,185.63
2018-07-15T08:47:15.048Z,180.00
2018-07-15T08:48:15.048Z,174.38
2018-07-15T08:50:07.994Z,174.38
2018-07-15T08:51:08.019Z,163.13
2018-07-15T08:53:00.973Z,151.88
2018-07-15T08:54:00.977Z,151.88
2018-07-15T08:55:53.913Z,151.88
2018-07-15T08:56:54.226Z,151.88
2018-07-15T08:58:46.896Z,151.88
2018-07-15T08:59:46.896Z,151.88
2018-07-15T09:01:39.863Z,151.88
2018-07-15T09:02:39.858Z,151.88
2018-07-15T09:04:32.798Z,151.88
2018-07-15T09:05:32.819Z,151.88
2018-07-15T09:07:25.780Z,151.88
2018-07-15T09:08:25.776Z,151.88
2018-07-15T09:10:18.722Z,151.88
2018-07-15T09:11:18.742Z,157.50
2018-07-15T09:13:11.702Z,151.88
2018-07-15T09:14:11.705Z,151.88
2018-07-15T09:16:04.642Z,151.88
2018-07-15T09:17:04.662Z,151.88
2018-07-15T09:18:57.620Z,151.88
2018-07-15T09:19:57.624Z,151.88
2018-07-15T09:21:50.663Z,151.88
2018-07-15T09:22:50.589Z,151.88
2018-07-15T09:24:43.526Z,157.50
2018-07-15T09:25:43.549Z,157.50
2018-07-15T09:27:36.502Z,157.50
2018-07-15T09:28:36.502Z,157.50
2018-07-15T09:30:29.440Z,157.50
2018-07-15T09:31:29.459Z,157.50
2018-07-15T09:33:22.419Z,157.50
2018-07-15T09:34:22.420Z,157.50
2018-07-15T09:36:15.360Z,157.50
2018-07-15T09:37:15.378Z,157.50
2018-07-15T09:39:08.338Z,157.50
2018-07-15T09:40:08.350Z,157.50
2018-07-15T09:42:01.295Z,157.50
2018-07-15T09:43:01.299Z,157.50
2018-07-15T09:44:54.241Z,157.50
2018-07-15T09:45:54.261Z,157.50
2018-07-15T09:47:47.220Z,163.13
2018-07-15T09:48:47.221Z,163.13
2018-07-15T09:50:40.161Z,163.13
2018-07-15T09:51:40.182Z,163.13
2018-07-15T09:53:33.138Z,163.13
2018-07-15T09:54:33.139Z,163.13
2018-07-15T09:56:26.085Z,163.13
2018-07-15T09:57:26.105Z,163.13
2018-07-15T09:59:19.056Z,163.13
2018-07-15T10:00:19.061Z,163.13
2018-07-15T10:02:12.019Z,163.13
2018-07-15T10:03:12.015Z,163.13
2018-07-15T10:05:04.951Z,163.13
2018-07-15T10:06:04.976Z,168.75
2018-07-15T10:07:57.933Z,163.13
2018-07-15T10:08:57.939Z,163.13
2018-07-15T10:10:50.876Z,163.13
2018-07-15T10:11:50.896Z,163.13
2018-07-15T10:13:43.856Z,163.13
2018-07-15T10:14:43.851Z,163.13
2018-07-15T10:16:36.796Z,163.13
2018-07-15T10:17:36.812Z,163.13
2018-07-15T10:19:29.774Z,163.13
2018-07-15T10:20:29.775Z,163.13
2018-07-15T10:22:22.731Z,163.13
2018-07-15T10:23:22.734Z,163.13
2018-07-15T10:25:15.673Z,163.13
2018-07-15T10:26:15.694Z,163.13
2018-07-15T10:28:08.650Z,163.13
2018-07-15T10:29:08.651Z,163.13
2018-07-15T10:31:01.589Z,163.13
2018-07-15T10:32:01.611Z,168.75
2018-07-15T10:33:54.568Z,163.13
2018-07-15T10:34:54.570Z,163.13
2018-07-15T10:36:47.510Z,163.13
2018-07-15T10:37:47.533Z,163.13
2018-07-15T10:39:40.493Z,163.13
2018-07-15T10:40:40.494Z,163.13
2018-07-15T10:42:33.466Z,163.13
2018-07-15T10:43:33.455Z,163.13
2018-07-15T10:45:26.390Z,168.75
2018-07-15T10:46:26.413Z,168.75
2018-07-15T10:48:19.370Z,168.75
2018-07-15T10:49:19.371Z,168.75
2018-07-15T10:51:12.316Z,168.75
2018-07-15T10:52:12.337Z,168.75
2018-07-15T10:54:05.293Z,168.75
2018-07-15T10:55:05.290Z,168.75
2018-07-15T10:56:58.233Z,168.75
2018-07-15T10:57:58.255Z,168.75
2018-07-15T10:59:51.211Z,168.75
2018-07-15T11:00:51.215Z,168.75
2018-07-15T11:02:44.184Z,168.75
2018-07-15T11:03:44.172Z,168.75
2018-07-15T11:05:37.117Z,174.38
2018-07-15T11:06:37.134Z,174.38
2018-07-15T11:08:30.090Z,174.38
2018-07-15T11:09:30.090Z,174.38
2018-07-15T11:11:23.029Z,174.38
2018-07-15T11:12:23.051Z,174.38
2018-07-15T11:14:16.011Z,174.38
2018-07-15T11:15:16.016Z,180.00
2018-07-15T11:17:08.951Z,180.00
2018-07-15T11:18:08.983Z,180.00
2018-07-15T11:20:01.934Z,180.00
2018-07-15T11:21:01.933Z,180.00
2018-07-15T11:22:54.875Z,180.00
2018-07-15T11:23:54.893Z,180.00
2018-07-15T11:25:47.861Z,180.00
2018-07-15T11:26:47.856Z,180.00
2018-07-15T11:28:40.811Z,180.00
2018-07-15T11:29:40.819Z,180.00
2018-07-15T11:31:33.767Z,185.63
2018-07-15T11:32:33.782Z,185.63
2018-07-15T11:34:26.741Z,185.63
2018-07-15T11:35:26.748Z,185.63
2018-07-15T11:37:19.686Z,185.63
2018-07-15T11:38:19.705Z,185.63
2018-07-15T11:40:12.665Z,185.63
2018-07-15T11:41:12.666Z,185.63
2018-07-15T11:43:05.608Z,185.63
2018-07-15T11:44:05.629Z,191.25
2018-07-15T11:45:58.583Z,180.00
2018-07-15T11:46:58.590Z,180.00
2018-07-15T11:48:51.548Z,185.63
2018-07-15T11:49:51.548Z,180.00
2018-07-15T11:51:44.488Z,180.00
2018-07-15T11:52:44.511Z,180.00
2018-07-15T11:54:37.485Z,180.00
2018-07-15T11:55:37.472Z,180.00
2018-07-15T11:57:30.411Z,185.63
2018-07-15T11:58:30.432Z,185.63
2018-07-15T12:00:23.389Z,185.63
2018-07-15T12:01:23.390Z,180.00
2018-07-15T12:03:16.333Z,185.63
2018-07-15T12:04:16.363Z,180.00
2018-07-15T12:06:09.318Z,180.00
2018-07-15T12:07:09.316Z,180.00
2018-07-15T12:09:02.259Z,180.00
2018-07-15T12:10:02.279Z,180.00
2018-07-15T12:11:55.235Z,180.00
2018-07-15T12:12:55.236Z,180.00
2018-07-15T12:14:48.198Z,180.00
2018-07-15T12:15:48.200Z,180.00
2018-07-15T12:17:41.138Z,180.00
2018-07-15T12:18:41.161Z,180.00
2018-07-15T12:20:34.187Z,180.00
2018-07-15T12:21:34.132Z,180.00
2018-07-15T12:23:27.071Z,180.00
2018-07-15T12:24:27.095Z,180.00
2018-07-15T12:26:20.052Z,180.00
2018-07-15T12:27:20.056Z,180.00
2018-07-15T12:29:12.994Z,180.00
2018-07-15T12:30:13.018Z,180.00
2018-07-15T12:32:05.990Z,180.00
2018-07-15T12:33:05.978Z,180.00
2018-07-15T12:34:58.937Z,180.00
2018-07-15T12:35:58.943Z,180.00
2018-07-15T12:37:51.883Z,180.00
2018-07-15T12:38:51.904Z,180.00
2018-07-15T12:40:44.863Z,180.00
2018-07-15T12:41:44.867Z,180.00
2018-07-15T12:43:37.821Z,180.00
2018-07-15T12:44:37.838Z,180.00
2018-07-15T12:46:30.801Z,180.00
2018-07-15T12:47:30.805Z,180.00
2018-07-15T12:49:23.743Z,180.00
2018-07-15T12:50:23.763Z,180.00
2018-07-15T12:52:16.722Z,180.00
2018-07-15T12:53:16.723Z,180.00
2018-07-15T12:55:09.683Z,180.00
2018-07-15T12:56:09.687Z,180.00
2018-07-15T12:58:02.626Z,180.00
2018-07-15T12:59:02.646Z,180.00
2018-07-15T13:00:55.606Z,174.38
2018-07-15T13:01:55.620Z,180.00
2018-07-15T13:03:48.553Z,174.38
2018-07-15T13:04:48.567Z,174.38
2018-07-15T13:06:41.531Z,174.38
2018-07-15T13:07:41.539Z,174.38
2018-07-15T13:09:34.478Z,174.38
2018-07-15T13:10:34.494Z,174.38
2018-07-15T13:12:27.456Z,174.38
2018-07-15T13:13:27.458Z,174.38
2018-07-15T13:15:20.400Z,174.38
2018-07-15T13:16:20.495Z,174.38
2018-07-15T13:18:13.379Z,168.75
2018-07-15T13:19:13.382Z,168.75
2018-07-15T13:21:06.338Z,168.75
2018-07-15T13:22:06.341Z,168.75
2018-07-15T13:23:59.279Z,168.75
2018-07-15T13:24:59.301Z,168.75
2018-07-15T13:26:52.261Z,168.75
2018-07-15T13:27:52.265Z,163.13
2018-07-15T13:29:45.212Z,163.13
2018-07-15T13:30:45.225Z,163.13
2018-07-15T13:32:38.185Z,163.13
2018-07-15T13:33:38.187Z,168.75
2018-07-15T13:35:31.129Z,163.13
2018-07-15T13:36:31.147Z,163.13
2018-07-15T13:38:24.114Z,168.75
2018-07-15T13:39:24.108Z,157.50
2018-07-15T13:41:17.071Z,163.13
2018-07-15T13:42:17.068Z,157.50
2018-07-15T13:44:10.008Z,163.13
2018-07-15T13:45:10.037Z,163.13
2018-07-15T13:47:02.989Z,163.13
2018-07-15T13:48:02.995Z,163.13
2018-07-15T13:49:55.934Z,163.13
2018-07-15T13:50:55.972Z,163.13
2018-07-15T13:52:49.417Z,163.13
2018-07-15T13:53:49.413Z,163.13
2018-07-15T13:55:42.353Z,157.50
2018-07-15T13:56:42.374Z,157.50
2018-07-15T13:58:35.333Z,157.50
2018-07-15T13:59:35.368Z,157.50
2018-07-15T14:01:28.291Z,157.50
2018-07-15T14:02:28.291Z,157.50
2018-07-15T14:04:21.234Z,157.50
2018-07-15T14:05:21.256Z,157.50
2018-07-15T14:07:14.213Z,151.88
2018-07-15T14:08:14.216Z,151.88
2018-07-15T14:10:07.152Z,151.88
2018-07-15T14:11:07.173Z,151.88
2018-07-15T14:13:00.135Z,151.88
2018-07-15T14:14:00.135Z,151.88
2018-07-15T14:15:53.077Z,151.88
2018-07-15T14:16:53.096Z,151.88
2018-07-15T14:18:46.054Z,151.88
2018-07-15T14:19:46.054Z,151.88
2018-07-15T14:21:39.018Z,151.88
2018-07-15T14:22:39.019Z,146.25
2018-07-15T14:24:31.956Z,146.25
2018-07-15T14:25:31.981Z,146.25
2018-07-15T14:27:24.935Z,146.25
2018-07-15T14:28:24.939Z,146.25
2018-07-15T14:30:17.886Z,146.25
2018-07-15T14:31:17.909Z,146.25
2018-07-15T14:33:10.872Z,140.63
2018-07-15T14:34:10.869Z,140.63
2018-07-15T14:36:03.806Z,140.63
2018-07-15T14:37:03.830Z,140.63
2018-07-15T14:38:56.792Z,140.63
2018-07-15T14:39:56.795Z,140.63
2018-07-15T14:41:49.754Z,140.63
2018-07-15T14:42:49.754Z,140.63
2018-07-15T14:44:42.703Z,140.63
2018-07-15T14:45:42.719Z,140.63
2018-07-15T14:47:35.676Z,140.63
2018-07-15T14:48:35.673Z,140.63
2018-07-15T14:50:28.615Z,140.63
2018-07-15T14:51:28.637Z,140.63
2018-07-15T14:53:21.599Z,140.63
2018-07-15T14:54:21.600Z,140.63
2018-07-15T14:56:14.542Z,140.63
2018-07-15T14:57:14.563Z,140.63
2018-07-15T14:59:07.522Z,135.00
2018-07-15T15:00:07.525Z,135.00
2018-07-15T15:02:00.521Z,135.00
2018-07-15T15:03:00.487Z,135.00
2018-07-15T15:04:53.431Z,135.00
2018-07-15T15:05:53.450Z,135.00
2018-07-15T15:07:46.905Z,135.00
2018-07-15T15:08:46.911Z,129.38
2018-07-15T15:10:39.849Z,135.00
2018-07-15T15:11:39.868Z,129.38
2018-07-15T15:13:32.827Z,129.38
2018-07-15T15:14:32.828Z,129.38
2018-07-15T15:16:25.772Z,129.38
2018-07-15T15:17:25.805Z,123.75
2018-07-15T15:19:18.752Z,123.75
2018-07-15T15:20:18.750Z,123.75
2018-07-15T15:22:11.709Z,123.75
2018-07-15T15:23:11.714Z,123.75
2018-07-15T15:25:04.648Z,123.75
2018-07-15T15:26:04.670Z,123.75
2018-07-15T15:27:57.631Z,123.75
2018-07-15T15:28:57.635Z,123.75
2018-07-15T15:30:50.574Z,123.75
2018-07-15T15:31:50.593Z,123.75
2018-07-15T15:33:43.591Z,123.75
2018-07-15T15:34:43.557Z,123.75
2018-07-15T15:36:36.493Z,118.13
2018-07-15T15:37:36.515Z,118.13
2018-07-15T15:39:29.475Z,118.13
2018-07-15T15:40:29.475Z,118.13
2018-07-15T15:42:22.452Z,118.13
2018-07-15T15:43:22.439Z,118.13
2018-07-15T15:45:15.377Z,112.50
2018-07-15T15:46:15.395Z,112.50
2018-07-15T15:48:08.363Z,112.50
2018-07-15T15:49:08.365Z,112.50
2018-07-15T15:51:01.315Z,118.13
2018-07-15T15:52:01.321Z,106.88
2018-07-15T15:53:54.285Z,106.88
2018-07-15T15:54:54.283Z,106.88
2018-07-15T15:56:47.225Z,106.88
2018-07-15T15:57:47.262Z,106.88
2018-07-15T15:59:40.202Z,101.25
2018-07-15T16:00:40.203Z,101.25
2018-07-15T16:02:33.164Z,101.25
2018-07-15T16:03:33.165Z,101.25
2018-07-15T16:05:26.114Z,101.25
2018-07-15T16:06:26.132Z,101.25
2018-07-15T16:08:19.086Z,101.25
2018-07-15T16:09:19.086Z,101.25
2018-07-15T16:11:12.038Z,101.25
2018-07-15T16:12:12.056Z,101.25
2018-07-15T16:14:05.011Z,95.63
2018-07-15T16:15:05.014Z,101.25
2018-07-15T16:16:57.955Z,101.25
2018-07-15T16:17:57.973Z,95.63
2018-07-15T16:19:50.935Z,90.00
2018-07-15T16:20:50.936Z,90.00
2018-07-15T16:22:43.896Z,90.00
2018-07-15T16:23:43.895Z,90.00
2018-07-15T16:25:36.836Z,84.38
2018-07-15T16:26:36.864Z,84.38
2018-07-15T16:28:29.818Z,84.38
2018-07-15T16:29:29.819Z,78.75
2018-07-15T16:31:22.766Z,78.75
2018-07-15T16:32:22.786Z,78.75
2018-07-15T16:34:15.744Z,78.75
2018-07-15T16:35:15.742Z,78.75
2018-07-15T16:37:08.696Z,78.75
2018-07-15T16:38:08.718Z,78.75
2018-07-15T16:40:01.661Z,73.13
2018-07-15T16:41:01.666Z,73.13
2018-07-15T16:42:54.622Z,73.13
2018-07-15T16:43:54.626Z,73.13
2018-07-15T16:45:47.564Z,67.50
2018-07-15T16:46:47.586Z,67.50
2018-07-15T16:48:40.541Z,67.50
2018-07-15T16:49:40.547Z,61.88
2018-07-15T16:51:33.483Z,61.88
2018-07-15T16:52:33.503Z,61.88
2018-07-15T16:54:26.456Z,61.88
2018-07-15T16:55:26.464Z,61.88
2018-07-15T16:57:19.396Z,61.88
2018-07-15T16:58:19.423Z,61.88
2018-07-15T17:00:12.378Z,61.88
2018-07-15T17:01:12.379Z,61.88
2018-07-15T17:03:05.364Z,56.25
2018-07-15T17:04:05.335Z,56.25
2018-07-15T17:05:58.278Z,56.25
2018-07-15T17:06:58.365Z,56.25
2018-07-15T17:08:51.252Z,56.25
2018-07-15T17:09:51.253Z,50.63
2018-07-15T17:11:44.217Z,50.63
2018-07-15T17:12:44.215Z,50.63
2018-07-15T17:14:37.171Z,50.63
2018-07-15T17:15:37.175Z,50.63
2018-07-15T17:17:30.185Z,50.63
2018-07-15T17:18:30.208Z,50.63
2018-07-15T17:20:23.166Z,45.00
2018-07-15T17:21:23.166Z,45.00
2018-07-15T17:23:16.136Z,45.00
2018-07-15T17:24:16.125Z,45.00
2018-07-15T17:26:09.061Z,45.00
2018-07-15T17:27:09.083Z,45.00
2018-07-15T17:29:02.035Z,45.00
2018-07-15T17:30:02.036Z,45.00
2018-07-15T17:31:54.970Z,39.38
2018-07-15T17:32:54.993Z,39.38
2018-07-15T17:34:47.950Z,39.38
2018-07-15T17:35:47.948Z,39.38
2018-07-15T17:37:40.888Z,39.38
2018-07-15T17:38:40.905Z,39.38
2018-07-15T17:40:33.931Z,39.38
2018-07-15T17:41:33.868Z,39.38
2018-07-15T17:43:26.830Z,39.38
2018-07-15T17:44:26.814Z,39.38
2018-07-15T17:46:19.785Z,39.38
2018-07-15T17:47:19.779Z,39.38
2018-07-15T17:49:12.728Z,39.38
2018-07-15T17:50:12.726Z,39.38
2018-07-15T17:52:05.678Z,39.38
2018-07-15T17:53:05.688Z,39.38
2018-07-15T17:54:58.648Z,39.38
2018-07-15T17:55:58.655Z,33.75
2018-07-15T17:57:51.606Z,33.75
2018-07-15T17:58:51.670Z,33.75
2018-07-15T18:00:44.575Z,33.75
2018-07-15T18:01:44.576Z,33.75
2018-07-15T18:03:37.514Z,33.75
2018-07-15T18:04:37.573Z,33.75
2018-07-15T18:06:30.486Z,33.75
2018-07-15T18:07:30.488Z,33.75
2018-07-15T18:09:23.450Z,33.75
2018-07-15T18:10:23.447Z,33.75
2018-07-15T18:12:16.383Z,28.13
2018-07-15T18:13:16.406Z,28.13
2018-07-15T18:15:09.363Z,28.13
2018-07-15T18:16:09.401Z,28.13
2018-07-15T18:18:02.298Z,28.13
2018-07-15T18:19:02.316Z,28.13
2018-07-15T18:20:55.310Z,28.13
2018-07-15T18:21:55.309Z,28.13
2018-07-15T18:23:48.276Z,28.13
2018-07-15T18:24:48.269Z,28.13
2018-07-15T18:26:41.198Z,28.13
2018-07-15T18:27:41.255Z,22.50
2018-07-15T18:29:34.190Z,22.50
2018-07-15T18:30:34.193Z,22.50
2018-07-15T18:32:27.130Z,22.50
2018-07-15T18:33:27.214Z,22.50
2018-07-15T18:35:20.102Z,22.50
2018-07-15T18:36:20.103Z,22.50
2018-07-15T18:38:13.040Z,22.50
2018-07-15T18:39:13.124Z,22.50
2018-07-15T18:41:06.022Z,22.50
2018-07-15T18:42:06.019Z,22.50
2018-07-15T18:43:58.999Z,22.50
2018-07-15T18:44:59.050Z,22.50
2018-07-15T18:46:51.916Z,16.88